Aeroporto :
LOGIN :

Iscrizione | Disclaimer

   EN    FR    IT 

 










Sommario :    VFR   VFR Marginale   IFR   IFR Intensivo   IFR Molto Intensivo
Visibilità : 
Base nubi : 
>= 8 km
>= 3000ft
5 / 8 km
1000 / 3000 ft
1500m / 5 km
500 / 1000 ft
800 / 1500m
200 / 500 ft
< 800m
< 200 ft
Simboli :   Temporali  Nebbia  Neve Forte  Precipitazioni Forti  Vento > 20 kt
SIGMETs :   Varie  Temporali  Ghiacco  Turbolenza  Onda orograficha  Ceneri Vulcaniche






- Altitudine del aeroporto : 2425 ft


ETHA - Altenstadt Army

ULTIMO METAR :
  • 221220Z 08004KT 1700 BR OVC001 02/01 Q1007 RED

METARs OBSOLETI :
  • 221137Z 08004KT 0900 FG VV000 01/00 Q1007 RED
  • 221120Z 08007KT 1900 BR OVC001 01/00 Q1008 RED
  • 221100Z 08005KT 1700 BR OVC001 01/01 Q1008 RED FCST CANCEL
  • 221020Z 08006KT 1200 BR BKN001 01/00 Q1008 RED RED BECMG YLO
  • 220959Z 08005KT 2500 BR BKN001 01/01 Q1008 RED RED BECMG YLO

TAF AMD TAF ETHA
Valido dal 22 a 10 ore il 22 a 18 ore UTC


221007Z 2210/2218 VRB03KT 2000 BR BKN002 FEW150 BKN270
TEMPO 2210/2212 07005KT 1000 BR BKN001 FEW150 BKN270
BECMG 2212/2214 07005KT 4000 BR BKN007 BKN270
TEMPO 2214/2216 12005KT 8000 NSW FEW007 BKN270 CANCEL 1100



MetMap, La meteo Aeronautica in un colpo d'occhio ! - Copyright ORBIFLY Dicembre 2007 - Disclaimer

ORBIFLY MET'MAP TEAM :

Programmazione e sviluppo : Alexandra Zaïnal
Concezione e sviluppo : Baudouin d'Aumeries
Co-Programmazione e sviluppo : Marc-Olivier Méhu
Supporto tecnico e logistico : Manuel Goepfert
Aiuto per la traduzione : Arnaldo La Scala

Contatto : metmap@orbifly.com




FONTI E CREDITI :

   NOAA